createdAt,value
2023-05-14T00:00:42.384Z,4.53
2023-05-14T00:03:09.325Z,3.93
2023-05-14T00:05:36.088Z,3.67
2023-05-14T00:08:02.848Z,3.20
2023-05-14T00:10:29.393Z,3.60
2023-05-14T00:12:56.115Z,3.87
2023-05-14T00:15:22.767Z,3.30
2023-05-14T00:17:49.454Z,4.30
2023-05-14T00:20:16.174Z,3.33
2023-05-14T00:22:42.808Z,3.80
2023-05-14T00:25:09.790Z,3.33
2023-05-14T00:27:37.957Z,4.07
2023-05-14T00:30:06.335Z,2.70
2023-05-14T00:32:33.273Z,3.07
2023-05-14T00:34:59.924Z,3.40
2023-05-14T00:37:26.500Z,2.63
2023-05-14T00:39:52.989Z,2.73
2023-05-14T00:42:19.550Z,4.10
2023-05-14T00:44:46.015Z,3.80
2023-05-14T00:47:12.978Z,3.30
2023-05-14T00:49:40.947Z,3.23
2023-05-14T00:52:07.799Z,3.17
2023-05-14T00:54:35.232Z,3.40
2023-05-14T00:57:02.358Z,3.10
2023-05-14T00:59:28.933Z,2.90
2023-05-14T01:01:55.659Z,12.30
2023-05-14T01:04:22.547Z,3.43
2023-05-14T01:07:12.011Z,2.90
2023-05-14T01:09:52.608Z,2.60
2023-05-14T01:12:34.709Z,2.73
2023-05-14T01:15:22.412Z,3.00
2023-05-14T01:17:53.960Z,3.50
2023-05-14T01:20:20.875Z,3.50
2023-05-14T01:22:47.580Z,3.03
2023-05-14T01:25:14.094Z,2.50
2023-05-14T01:27:52.492Z,2.50
2023-05-14T01:32:55.329Z,3.37
2023-05-14T01:35:27.687Z,2.40
2023-05-14T01:38:07.303Z,2.37
2023-05-14T01:40:34.528Z,2.33
2023-05-14T01:43:01.057Z,2.47
2023-05-14T01:45:27.687Z,2.30
2023-05-14T01:47:54.394Z,2.73
2023-05-14T01:50:21.265Z,2.87
2023-05-14T01:52:53.471Z,2.87
2023-05-14T01:55:20.267Z,2.67
2023-05-14T01:57:46.817Z,3.13
2023-05-14T02:00:14.062Z,2.77
2023-05-14T02:02:41.172Z,2.53
2023-05-14T02:05:08.439Z,2.77
2023-05-14T02:07:35.117Z,3.80
2023-05-14T02:10:01.639Z,3.80
2023-05-14T02:12:28.397Z,4.80
2023-05-14T02:14:54.914Z,6.23
2023-05-14T02:17:21.825Z,4.33
2023-05-14T02:19:48.393Z,3.77
2023-05-14T02:22:15.330Z,3.67
2023-05-14T02:24:42.262Z,3.37
2023-05-14T02:27:08.845Z,3.10
2023-05-14T02:29:35.424Z,3.63
2023-05-14T02:32:01.969Z,4.23
2023-05-14T02:34:28.617Z,3.50
2023-05-14T02:36:55.173Z,4.07
2023-05-14T02:39:21.690Z,4.40
2023-05-14T02:41:48.422Z,3.90
2023-05-14T02:44:14.912Z,4.43
2023-05-14T02:46:41.724Z,4.70
2023-05-14T02:49:08.809Z,3.70
2023-05-14T02:51:35.364Z,6.07
2023-05-14T02:54:01.966Z,4.70
2023-05-14T02:56:28.641Z,2.80
2023-05-14T02:58:55.306Z,3.00
2023-05-14T03:01:22.333Z,5.40
2023-05-14T03:03:49.638Z,4.90
2023-05-14T03:06:16.504Z,3.77
2023-05-14T03:08:43.088Z,2.07
2023-05-14T03:11:09.827Z,2.33
2023-05-14T03:13:36.340Z,2.87
2023-05-14T03:16:02.848Z,3.17
2023-05-14T03:18:30.823Z,2.40
2023-05-14T03:20:57.512Z,2.93
2023-05-14T03:23:24.173Z,2.40
2023-05-14T03:25:51.062Z,3.17
2023-05-14T03:28:17.694Z,3.27
2023-05-14T03:30:44.357Z,2.70
2023-05-14T03:33:11.140Z,2.20
2023-05-14T03:35:37.579Z,3.53
2023-05-14T03:38:04.464Z,3.00
2023-05-14T03:40:31.096Z,2.87
2023-05-14T03:42:57.651Z,2.53
2023-05-14T03:45:24.975Z,2.83
2023-05-14T03:47:51.866Z,2.97
2023-05-14T03:50:18.470Z,2.47
2023-05-14T03:52:45.983Z,5.33
2023-05-14T03:55:12.505Z,3.20
2023-05-14T03:57:39.121Z,3.67
2023-05-14T04:00:06.482Z,3.20
2023-05-14T04:02:33.270Z,3.00
2023-05-14T04:04:59.898Z,3.90
2023-05-14T04:07:26.424Z,2.50
2023-05-14T04:09:52.914Z,3.63
2023-05-14T04:12:19.427Z,2.87
2023-05-14T04:14:45.928Z,2.57
2023-05-14T04:17:12.774Z,3.00
2023-05-14T04:19:40.423Z,2.43
2023-05-14T04:22:06.955Z,2.60
2023-05-14T04:24:33.564Z,2.00
2023-05-14T04:27:00.070Z,2.70
2023-05-14T04:29:26.750Z,2.23
2023-05-14T04:31:53.692Z,2.70
2023-05-14T04:34:20.248Z,2.43
2023-05-14T04:36:47.170Z,1.90
2023-05-14T04:39:13.711Z,2.33
2023-05-14T04:41:40.382Z,1.90
2023-05-14T04:44:07.328Z,2.53
2023-05-14T04:46:34.193Z,2.20
2023-05-14T04:49:00.885Z,2.03
2023-05-14T04:51:28.075Z,3.27
2023-05-14T04:53:54.522Z,2.73
2023-05-14T04:56:21.559Z,2.43
2023-05-14T04:58:48.204Z,3.60
2023-05-14T05:01:15.453Z,2.47
2023-05-14T05:03:42.134Z,2.80
2023-05-14T05:06:08.674Z,2.37
2023-05-14T05:08:35.418Z,2.57
2023-05-14T05:11:01.961Z,2.80
2023-05-14T05:13:28.809Z,2.43
2023-05-14T05:15:55.424Z,3.23
2023-05-14T05:18:22.189Z,3.70
2023-05-14T05:20:48.763Z,3.93
2023-05-14T05:23:15.316Z,3.10
2023-05-14T05:25:42.077Z,3.50
2023-05-14T05:28:08.560Z,3.23
2023-05-14T05:30:35.269Z,4.10
2023-05-14T05:33:02.084Z,3.80
2023-05-14T05:35:29.129Z,3.33
2023-05-14T05:37:55.903Z,3.90
2023-05-14T05:40:22.600Z,3.20
2023-05-14T05:42:49.300Z,4.43
2023-05-14T05:45:16.029Z,4.17
2023-05-14T05:47:42.623Z,3.63
2023-05-14T05:50:09.842Z,4.17
2023-05-14T05:52:36.634Z,3.63
2023-05-14T05:55:03.824Z,3.53
2023-05-14T05:57:30.470Z,3.47
2023-05-14T05:59:56.989Z,3.90
2023-05-14T06:02:25.428Z,3.70
2023-05-14T06:04:53.206Z,3.83
2023-05-14T06:07:19.954Z,4.33
2023-05-14T06:09:46.641Z,4.70
2023-05-14T06:12:13.305Z,4.43
2023-05-14T06:14:39.985Z,4.40
2023-05-14T06:17:06.663Z,4.00
2023-05-14T06:19:33.130Z,3.60
2023-05-14T06:21:59.744Z,3.60
2023-05-14T06:24:26.638Z,4.03
2023-05-14T06:26:53.346Z,4.00
2023-05-14T06:29:19.893Z,4.47
2023-05-14T06:31:46.734Z,4.90
2023-05-14T06:34:13.435Z,4.80
2023-05-14T06:36:40.276Z,4.40
2023-05-14T06:39:07.127Z,4.40
2023-05-14T06:41:33.696Z,4.00
2023-05-14T06:44:00.348Z,4.40
2023-05-14T06:46:27.003Z,5.10
2023-05-14T06:48:53.563Z,4.77
2023-05-14T06:51:20.131Z,5.60
2023-05-14T06:53:48.919Z,5.83
2023-05-14T06:56:15.460Z,4.30
2023-05-14T06:58:42.058Z,4.47
2023-05-14T07:01:09.107Z,4.30
2023-05-14T07:03:36.124Z,4.37
2023-05-14T07:06:02.617Z,4.13
2023-05-14T07:08:29.250Z,4.17
2023-05-14T07:10:57.321Z,4.20
2023-05-14T07:13:24.959Z,3.90
2023-05-14T07:15:55.542Z,4.20
2023-05-14T07:18:23.382Z,3.10
2023-05-14T07:20:49.934Z,4.60
2023-05-14T07:23:18.534Z,4.90
2023-05-14T07:25:46.616Z,4.20
2023-05-14T07:28:13.224Z,4.30
2023-05-14T07:30:39.820Z,3.70
2023-05-14T07:33:06.452Z,4.07
2023-05-14T07:35:33.179Z,3.70
2023-05-14T07:37:59.762Z,3.90
2023-05-14T07:40:26.732Z,3.67
2023-05-14T07:42:53.440Z,4.50
2023-05-14T07:45:20.116Z,4.63
2023-05-14T07:47:46.938Z,4.63
2023-05-14T07:50:13.599Z,3.40
2023-05-14T07:52:40.209Z,3.77
2023-05-14T07:55:07.476Z,2.90
2023-05-14T07:57:34.015Z,3.63
2023-05-14T08:00:00.672Z,3.00
2023-05-14T08:02:28.286Z,3.80
2023-05-14T08:04:55.291Z,3.77
2023-05-14T08:07:21.795Z,3.30
2023-05-14T08:09:48.408Z,3.37
2023-05-14T08:12:15.120Z,3.00
2023-05-14T08:14:41.746Z,3.57
2023-05-14T08:17:08.998Z,5.27
2023-05-14T08:19:35.813Z,3.20
2023-05-14T08:22:02.381Z,4.23
2023-05-14T08:24:29.294Z,4.03
2023-05-14T08:26:56.047Z,3.47
2023-05-14T08:29:22.811Z,3.47
2023-05-14T08:31:52.184Z,3.40
2023-05-14T08:34:18.719Z,2.67
2023-05-14T08:36:45.412Z,3.40
2023-05-14T08:39:11.953Z,3.13
2023-05-14T08:41:38.967Z,2.97
2023-05-14T08:44:13.351Z,3.27
2023-05-14T08:46:40.761Z,2.80
2023-05-14T08:49:43.412Z,3.43
2023-05-14T08:52:10.845Z,3.03
2023-05-14T08:54:37.605Z,4.40
2023-05-14T08:57:05.552Z,4.07
2023-05-14T08:59:32.252Z,3.03
2023-05-14T09:02:02.138Z,3.40
2023-05-14T09:04:29.714Z,3.87
2023-05-14T09:06:56.367Z,3.77
2023-05-14T09:09:23.415Z,3.33
2023-05-14T09:11:51.402Z,3.87
2023-05-14T09:14:18.280Z,4.50
2023-05-14T09:16:49.239Z,4.37
2023-05-14T09:19:18.970Z,4.00
2023-05-14T09:21:47.007Z,4.57
2023-05-14T09:24:21.482Z,4.67
2023-05-14T09:26:51.841Z,4.77
2023-05-14T09:29:18.564Z,5.47
2023-05-14T09:31:45.577Z,4.57
2023-05-14T09:34:12.390Z,7.03
2023-05-14T09:36:39.066Z,4.00
2023-05-14T09:39:05.840Z,4.27
2023-05-14T09:41:32.412Z,3.87
2023-05-14T09:43:59.007Z,4.50
2023-05-14T09:46:30.124Z,3.90
2023-05-14T09:48:57.264Z,4.37
2023-05-14T09:51:24.092Z,4.47
2023-05-14T09:53:53.100Z,4.40
2023-05-14T09:56:20.008Z,4.60
2023-05-14T09:58:46.546Z,6.33
2023-05-14T10:01:15.065Z,5.00
2023-05-14T10:03:41.819Z,4.30
2023-05-14T10:06:10.591Z,4.33
2023-05-14T10:08:38.969Z,3.80
2023-05-14T10:11:15.375Z,4.40
2023-05-14T10:13:51.943Z,3.60
2023-05-14T10:16:29.683Z,4.63
2023-05-14T10:19:00.632Z,4.07
2023-05-14T10:21:29.542Z,4.67
2023-05-14T10:23:56.141Z,5.03
2023-05-14T10:26:24.012Z,4.70
2023-05-14T10:28:50.782Z,4.70
2023-05-14T10:31:17.579Z,4.60
2023-05-14T10:33:51.135Z,5.27
2023-05-14T10:36:18.698Z,3.70
2023-05-14T10:38:45.552Z,5.70
2023-05-14T10:41:17.868Z,7.03
2023-05-14T10:43:44.719Z,5.90
2023-05-14T10:46:12.592Z,5.63
2023-05-14T10:48:41.898Z,6.50
2023-05-14T10:51:12.452Z,6.10
2023-05-14T10:53:41.354Z,5.80
2023-05-14T10:56:13.041Z,6.27
2023-05-14T10:58:44.235Z,5.40
2023-05-14T11:01:12.689Z,6.10
2023-05-14T11:03:45.077Z,8.23
2023-05-14T11:06:13.629Z,5.87
2023-05-14T11:08:40.530Z,4.97
2023-05-14T11:11:08.373Z,5.60
2023-05-14T11:13:34.964Z,6.43
2023-05-14T11:16:15.074Z,6.67
2023-05-14T11:18:53.549Z,5.47
2023-05-14T11:21:20.238Z,6.70
2023-05-14T11:23:47.068Z,6.70
2023-05-14T11:26:13.764Z,5.50
2023-05-14T11:28:40.656Z,6.10
2023-05-14T11:31:07.474Z,5.03
2023-05-14T11:33:34.132Z,6.80
2023-05-14T11:36:00.693Z,6.57
2023-05-14T11:38:27.222Z,6.40
2023-05-14T11:40:58.254Z,6.23
2023-05-14T11:43:26.331Z,5.17
2023-05-14T11:45:54.021Z,8.77
2023-05-14T11:48:21.517Z,7.63
2023-05-14T11:50:49.829Z,6.67
2023-05-14T11:53:21.034Z,7.23
2023-05-14T11:55:47.786Z,7.30
2023-05-14T11:58:14.314Z,7.47
2023-05-14T12:00:41.058Z,6.70
2023-05-14T12:03:10.232Z,7.50
2023-05-14T12:05:39.226Z,7.03
2023-05-14T12:08:22.501Z,6.53
2023-05-14T12:10:49.240Z,6.90
2023-05-14T12:13:17.383Z,6.37
2023-05-14T12:15:48.796Z,6.70
2023-05-14T12:18:24.506Z,6.40
2023-05-14T12:20:52.252Z,6.50
2023-05-14T12:23:31.752Z,5.83
2023-05-14T12:26:06.928Z,6.40
2023-05-14T12:28:36.068Z,7.40
2023-05-14T12:31:04.475Z,6.97
2023-05-14T12:33:31.244Z,7.33
2023-05-14T12:36:10.052Z,6.93
2023-05-14T12:38:41.397Z,6.43
2023-05-14T12:41:07.929Z,5.23
2023-05-14T12:43:34.554Z,5.57
2023-05-14T12:46:01.142Z,6.40
2023-05-14T12:48:27.942Z,7.37
2023-05-14T12:50:54.455Z,6.37
2023-05-14T12:53:21.592Z,6.30
2023-05-14T12:55:49.657Z,6.63
2023-05-14T12:58:16.219Z,6.13
2023-05-14T13:00:42.795Z,7.13
2023-05-14T13:03:09.490Z,6.20
2023-05-14T13:05:36.360Z,6.23
2023-05-14T13:08:03.985Z,6.47
2023-05-14T13:10:30.628Z,5.55
2023-05-14T13:12:58.216Z,6.00
2023-05-14T13:15:25.142Z,6.90
2023-05-14T13:17:52.113Z,7.03
2023-05-14T13:20:18.928Z,7.83
2023-05-14T13:22:45.719Z,6.83
2023-05-14T13:25:15.473Z,7.00
2023-05-14T13:27:42.011Z,7.80
2023-05-14T13:30:08.875Z,7.80
2023-05-14T13:32:35.770Z,7.50
2023-05-14T13:35:02.358Z,7.90
2023-05-14T13:37:29.152Z,7.90
2023-05-14T13:39:56.063Z,7.73
2023-05-14T13:42:23.661Z,6.93
2023-05-14T13:44:50.866Z,6.63
2023-05-14T13:47:17.410Z,6.90
2023-05-14T13:49:44.180Z,7.63
2023-05-14T13:52:10.793Z,8.43
2023-05-14T13:54:37.306Z,8.30
2023-05-14T13:57:04.143Z,8.60
2023-05-14T13:59:30.753Z,8.73
2023-05-14T14:01:57.507Z,7.93
2023-05-14T14:04:25.751Z,7.03
2023-05-14T14:06:52.285Z,7.37
2023-05-14T14:09:19.034Z,7.60
2023-05-14T14:11:45.771Z,7.50
2023-05-14T14:14:12.319Z,5.87
2023-05-14T14:16:39.221Z,7.70
2023-05-14T14:19:06.458Z,7.57
2023-05-14T14:21:34.161Z,7.10
2023-05-14T14:24:03.962Z,7.80
2023-05-14T14:26:30.620Z,6.20
2023-05-14T14:28:57.158Z,7.20
2023-05-14T14:31:23.983Z,6.93
2023-05-14T14:33:50.602Z,6.63
2023-05-14T14:36:17.272Z,6.60
2023-05-14T14:38:43.742Z,6.60
2023-05-14T14:41:10.684Z,6.40
2023-05-14T14:43:38.268Z,6.50
2023-05-14T14:46:05.132Z,7.07
2023-05-14T14:48:34.310Z,6.50
2023-05-14T14:51:03.918Z,5.90
2023-05-14T14:53:30.987Z,7.00
2023-05-14T14:55:57.950Z,6.40
2023-05-14T14:58:24.842Z,6.00
2023-05-14T15:00:53.983Z,6.10
2023-05-14T15:03:21.369Z,6.20
2023-05-14T15:05:48.437Z,5.90
2023-05-14T15:08:15.639Z,7.30
2023-05-14T15:10:42.396Z,7.83
2023-05-14T15:13:09.438Z,7.20
2023-05-14T15:15:36.227Z,8.23
2023-05-14T15:18:03.747Z,7.93
2023-05-14T15:20:30.705Z,7.80
2023-05-14T15:22:57.246Z,8.03
2023-05-14T15:25:25.253Z,8.00
2023-05-14T15:27:52.075Z,8.50
2023-05-14T15:30:18.833Z,7.70
2023-05-14T15:32:46.260Z,7.50
2023-05-14T15:35:12.930Z,8.37
2023-05-14T15:37:44.322Z,8.30
2023-05-14T15:40:11.866Z,8.53
2023-05-14T15:42:42.017Z,7.90
2023-05-14T15:45:12.581Z,6.60
2023-05-14T15:47:39.639Z,7.70
2023-05-14T15:50:07.131Z,7.57
2023-05-14T15:52:34.489Z,8.10
2023-05-14T15:55:01.255Z,8.10
2023-05-14T15:57:27.830Z,9.50
2023-05-14T15:59:54.432Z,7.50
2023-05-14T16:02:21.092Z,8.50
2023-05-14T16:04:49.789Z,8.17
2023-05-14T16:07:16.475Z,7.03
2023-05-14T16:09:43.058Z,6.77
2023-05-14T16:12:09.668Z,5.80
2023-05-14T16:14:36.314Z,6.93
2023-05-14T16:17:02.982Z,6.70
2023-05-14T16:19:29.524Z,6.00
2023-05-14T16:21:56.455Z,6.00
2023-05-14T16:24:22.945Z,5.80
2023-05-14T16:26:49.636Z,5.03
2023-05-14T16:29:16.427Z,4.97
2023-05-14T16:31:43.035Z,4.70
2023-05-14T16:34:09.631Z,3.93
2023-05-14T16:36:36.540Z,4.60
2023-05-14T16:39:07.485Z,4.47
2023-05-14T16:41:35.650Z,4.10
2023-05-14T16:44:02.493Z,4.83
2023-05-14T16:46:29.433Z,5.40
2023-05-14T16:48:56.193Z,4.87
2023-05-14T16:51:22.819Z,4.23
2023-05-14T16:53:49.396Z,4.40
2023-05-14T16:56:16.539Z,3.93
2023-05-14T16:58:43.091Z,3.90
2023-05-14T17:01:10.487Z,3.80
2023-05-14T17:03:37.097Z,4.10
2023-05-14T17:06:04.693Z,4.37
2023-05-14T17:08:33.847Z,3.70
2023-05-14T17:11:00.573Z,4.00
2023-05-14T17:13:27.276Z,4.87
2023-05-14T17:15:53.997Z,4.50
2023-05-14T17:18:20.915Z,4.40
2023-05-14T17:20:47.448Z,4.83
2023-05-14T17:23:14.238Z,5.67
2023-05-14T17:25:42.102Z,4.77
2023-05-14T17:28:08.692Z,5.30
2023-05-14T17:30:35.217Z,5.60
2023-05-14T17:33:02.005Z,6.03
2023-05-14T17:35:28.638Z,5.70
2023-05-14T17:37:55.193Z,6.30
2023-05-14T17:40:21.829Z,5.90
2023-05-14T17:42:48.514Z,5.57
2023-05-14T17:45:21.023Z,4.83
2023-05-14T17:47:49.059Z,5.60
2023-05-14T17:50:15.658Z,5.67
2023-05-14T17:52:44.228Z,5.73
2023-05-14T17:55:11.331Z,6.17
2023-05-14T17:57:37.926Z,5.93
2023-05-14T18:00:05.162Z,5.70
2023-05-14T18:02:32.128Z,5.60
2023-05-14T18:05:00.210Z,6.00
2023-05-14T18:07:26.758Z,5.80
2023-05-14T18:09:53.547Z,5.53
2023-05-14T18:12:20.343Z,6.77
2023-05-14T18:14:47.013Z,5.23
2023-05-14T18:17:13.888Z,5.90
2023-05-14T18:19:41.064Z,6.60
2023-05-14T18:22:07.652Z,6.57
2023-05-14T18:24:34.353Z,6.03
2023-05-14T18:27:01.083Z,6.80
2023-05-14T18:29:27.672Z,6.30
2023-05-14T18:31:54.237Z,6.10
2023-05-14T18:34:20.909Z,5.83
2023-05-14T18:36:47.655Z,5.93
2023-05-14T18:39:14.210Z,7.30
2023-05-14T18:41:40.746Z,6.90
2023-05-14T18:44:07.431Z,7.07
2023-05-14T18:46:34.190Z,6.27
2023-05-14T18:49:00.800Z,5.73
2023-05-14T18:51:27.391Z,8.47
2023-05-14T18:53:54.690Z,7.37
2023-05-14T18:56:21.732Z,6.20
2023-05-14T18:58:48.277Z,7.00
2023-05-14T19:01:15.032Z,6.40
2023-05-14T19:03:42.272Z,7.23
2023-05-14T19:06:09.118Z,6.67
2023-05-14T19:08:36.189Z,6.63
2023-05-14T19:11:03.134Z,7.10
2023-05-14T19:13:30.373Z,6.10
2023-05-14T19:15:57.148Z,5.83
2023-05-14T19:18:23.733Z,6.67
2023-05-14T19:20:50.532Z,5.73
2023-05-14T19:23:17.172Z,6.07
2023-05-14T19:25:43.729Z,6.00
2023-05-14T19:28:10.358Z,6.50
2023-05-14T19:30:37.033Z,6.27
2023-05-14T19:33:03.778Z,6.53
2023-05-14T19:35:30.773Z,6.73
2023-05-14T19:37:57.477Z,6.10
2023-05-14T19:40:24.575Z,6.33
2023-05-14T19:42:51.213Z,6.63
2023-05-14T19:45:17.894Z,5.70
2023-05-14T19:47:44.755Z,6.03
2023-05-14T19:50:11.481Z,7.00
2023-05-14T19:52:38.134Z,6.53
2023-05-14T19:55:05.205Z,6.00
2023-05-14T19:57:31.786Z,6.03
2023-05-14T19:59:58.498Z,6.63
2023-05-14T20:02:25.122Z,6.63
2023-05-14T20:04:55.472Z,8.10
2023-05-14T20:07:22.825Z,7.23
2023-05-14T20:09:49.452Z,7.70
2023-05-14T20:12:16.863Z,7.57
2023-05-14T20:14:43.589Z,7.37
2023-05-14T20:17:10.298Z,6.30
2023-05-14T20:19:36.878Z,6.70
2023-05-14T20:22:03.484Z,7.50
2023-05-14T20:24:30.343Z,6.93
2023-05-14T20:26:57.074Z,6.03
2023-05-14T20:29:23.998Z,6.00
2023-05-14T20:31:50.598Z,5.50
2023-05-14T20:34:17.311Z,5.40
2023-05-14T20:36:44.492Z,5.50
2023-05-14T20:39:11.948Z,6.20
2023-05-14T20:41:38.593Z,6.80
2023-05-14T20:44:05.233Z,6.83
2023-05-14T20:46:31.784Z,6.77
2023-05-14T20:49:01.017Z,4.90
2023-05-14T20:51:27.605Z,5.23
2023-05-14T20:53:54.310Z,4.20
2023-05-14T20:56:20.886Z,4.53
2023-05-14T20:58:47.593Z,5.23
2023-05-14T21:01:14.387Z,5.37
2023-05-14T21:03:41.459Z,5.23
2023-05-14T21:06:08.097Z,5.63
2023-05-14T21:08:35.574Z,5.77
2023-05-14T21:11:02.124Z,4.90
2023-05-14T21:13:28.655Z,4.43
2023-05-14T21:15:55.279Z,4.87
2023-05-14T21:18:21.996Z,4.43
2023-05-14T21:20:48.466Z,5.00
2023-05-14T21:23:14.996Z,4.57
2023-05-14T21:25:41.576Z,4.73
2023-05-14T21:28:08.376Z,4.60
2023-05-14T21:30:34.927Z,6.10
2023-05-14T21:33:01.571Z,5.10
2023-05-14T21:35:28.154Z,4.67
2023-05-14T21:37:54.894Z,4.33
2023-05-14T21:40:21.659Z,4.50
2023-05-14T21:42:48.246Z,4.77
2023-05-14T21:45:14.773Z,4.80
2023-05-14T21:47:41.669Z,4.60
2023-05-14T21:50:08.630Z,5.60
2023-05-14T21:52:35.497Z,5.80
2023-05-14T21:55:02.029Z,4.20
2023-05-14T21:57:30.011Z,4.70
2023-05-14T21:59:58.390Z,4.33
2023-05-14T22:02:25.245Z,4.50
2023-05-14T22:04:51.919Z,5.03
2023-05-14T22:07:18.795Z,4.53
2023-05-14T22:09:45.615Z,4.27
2023-05-14T22:12:12.371Z,5.03
2023-05-14T22:14:38.879Z,5.03
2023-05-14T22:17:05.670Z,3.90
2023-05-14T22:19:32.150Z,3.87
2023-05-14T22:21:58.993Z,3.87
2023-05-14T22:24:26.094Z,3.60
2023-05-14T22:26:52.891Z,3.83
2023-05-14T22:29:19.454Z,3.73
2023-05-14T22:31:46.110Z,4.10
2023-05-14T22:34:12.737Z,3.00
2023-05-14T22:36:39.369Z,3.60
2023-05-14T22:39:05.908Z,3.07
2023-05-14T22:41:32.452Z,3.33
2023-05-14T22:43:59.241Z,4.23
2023-05-14T22:46:25.988Z,3.63
2023-05-14T22:48:52.585Z,3.70
2023-05-14T22:51:19.074Z,4.00
2023-05-14T22:53:47.103Z,4.20
2023-05-14T22:56:13.766Z,3.40
2023-05-14T22:58:40.500Z,3.60
2023-05-14T23:01:07.050Z,4.00
2023-05-14T23:03:33.932Z,3.40
2023-05-14T23:06:00.535Z,3.37
2023-05-14T23:08:27.385Z,3.60
2023-05-14T23:10:53.924Z,3.60
2023-05-14T23:13:20.497Z,3.93
2023-05-14T23:15:47.211Z,3.90
2023-05-14T23:18:13.888Z,4.17
2023-05-14T23:20:40.777Z,3.40
2023-05-14T23:23:07.372Z,4.10
2023-05-14T23:25:33.902Z,2.90
2023-05-14T23:28:00.575Z,3.23
2023-05-14T23:30:27.024Z,3.10
2023-05-14T23:32:53.563Z,3.13
2023-05-14T23:35:20.149Z,2.90
2023-05-14T23:37:49.484Z,3.40
2023-05-14T23:40:16.453Z,3.40
2023-05-14T23:42:43.934Z,3.03
2023-05-14T23:45:12.231Z,3.50
2023-05-14T23:47:39.286Z,3.37
2023-05-14T23:50:06.313Z,3.87
2023-05-14T23:52:33.240Z,3.23
2023-05-14T23:55:00.381Z,3.13
2023-05-14T23:57:27.318Z,2.90
2023-05-14T23:59:53.887Z,3.30
